sensor_id;sensor_type;location;lat;lon;timestamp;P1;durP1;ratioP1;P2;durP2;ratioP2
20649;SDS011;10484;48.736;9.332;2023-08-30T00:01:48;4.73;;;4.33;;
20649;SDS011;10484;48.736;9.332;2023-08-30T00:04:13;4.70;;;4.40;;
20649;SDS011;10484;48.736;9.332;2023-08-30T00:06:39;5.77;;;5.30;;
20649;SDS011;10484;48.736;9.332;2023-08-30T00:09:05;5.10;;;4.70;;
20649;SDS011;10484;48.736;9.332;2023-08-30T00:11:30;5.50;;;5.10;;
20649;SDS011;10484;48.736;9.332;2023-08-30T00:14:04;5.00;;;4.70;;
20649;SDS011;10484;48.736;9.332;2023-08-30T00:16:31;5.20;;;4.87;;
20649;SDS011;10484;48.736;9.332;2023-08-30T00:18:58;5.93;;;5.50;;
20649;SDS011;10484;48.736;9.332;2023-08-30T00:21:24;5.67;;;5.27;;
20649;SDS011;10484;48.736;9.332;2023-08-30T00:23:50;5.17;;;4.67;;
20649;SDS011;10484;48.736;9.332;2023-08-30T00:26:16;4.67;;;3.97;;
20649;SDS011;10484;48.736;9.332;2023-08-30T00:28:42;4.43;;;4.20;;
20649;SDS011;10484;48.736;9.332;2023-08-30T00:31:08;5.17;;;4.77;;
20649;SDS011;10484;48.736;9.332;2023-08-30T00:33:33;5.60;;;5.10;;
20649;SDS011;10484;48.736;9.332;2023-08-30T00:35:59;5.03;;;4.73;;
20649;SDS011;10484;48.736;9.332;2023-08-30T00:38:28;5.13;;;4.83;;
20649;SDS011;10484;48.736;9.332;2023-08-30T00:40:53;5.33;;;5.03;;
20649;SDS011;10484;48.736;9.332;2023-08-30T00:43:20;6.13;;;5.73;;
20649;SDS011;10484;48.736;9.332;2023-08-30T00:45:46;5.30;;;4.90;;
20649;SDS011;10484;48.736;9.332;2023-08-30T00:48:13;6.13;;;5.50;;
20649;SDS011;10484;48.736;9.332;2023-08-30T00:50:41;5.33;;;4.93;;
20649;SDS011;10484;48.736;9.332;2023-08-30T00:53:07;5.33;;;4.93;;
20649;SDS011;10484;48.736;9.332;2023-08-30T00:55:36;5.43;;;4.97;;
20649;SDS011;10484;48.736;9.332;2023-08-30T00:58:02;4.03;;;3.73;;
20649;SDS011;10484;48.736;9.332;2023-08-30T01:00:32;5.07;;;4.67;;
20649;SDS011;10484;48.736;9.332;2023-08-30T01:02:58;5.10;;;4.80;;
20649;SDS011;10484;48.736;9.332;2023-08-30T01:05:24;5.47;;;5.07;;
20649;SDS011;10484;48.736;9.332;2023-08-30T01:07:50;5.37;;;4.90;;
20649;SDS011;10484;48.736;9.332;2023-08-30T01:10:17;5.30;;;4.90;;
20649;SDS011;10484;48.736;9.332;2023-08-30T01:12:47;5.30;;;4.90;;
20649;SDS011;10484;48.736;9.332;2023-08-30T01:15:18;5.70;;;5.10;;
20649;SDS011;10484;48.736;9.332;2023-08-30T01:17:44;5.23;;;4.93;;
20649;SDS011;10484;48.736;9.332;2023-08-30T01:20:13;5.63;;;5.27;;
20649;SDS011;10484;48.736;9.332;2023-08-30T01:22:57;5.90;;;4.87;;
20649;SDS011;10484;48.736;9.332;2023-08-30T01:25:53;6.13;;;5.63;;
20649;SDS011;10484;48.736;9.332;2023-08-30T01:28:23;5.77;;;5.37;;
20649;SDS011;10484;48.736;9.332;2023-08-30T01:30:51;6.10;;;5.70;;
20649;SDS011;10484;48.736;9.332;2023-08-30T01:33:22;5.60;;;5.10;;
20649;SDS011;10484;48.736;9.332;2023-08-30T01:35:49;5.40;;;4.90;;
20649;SDS011;10484;48.736;9.332;2023-08-30T01:38:15;6.20;;;5.70;;
20649;SDS011;10484;48.736;9.332;2023-08-30T01:40:42;6.03;;;5.53;;
20649;SDS011;10484;48.736;9.332;2023-08-30T01:43:08;5.93;;;5.53;;
20649;SDS011;10484;48.736;9.332;2023-08-30T01:45:36;6.40;;;5.90;;
20649;SDS011;10484;48.736;9.332;2023-08-30T01:48:06;5.13;;;4.83;;
20649;SDS011;10484;48.736;9.332;2023-08-30T01:50:34;5.80;;;5.40;;
20649;SDS011;10484;48.736;9.332;2023-08-30T01:53:00;6.10;;;5.60;;
20649;SDS011;10484;48.736;9.332;2023-08-30T01:55:28;6.97;;;6.33;;
20649;SDS011;10484;48.736;9.332;2023-08-30T01:57:54;6.60;;;6.10;;
20649;SDS011;10484;48.736;9.332;2023-08-30T02:00:20;6.60;;;6.00;;
20649;SDS011;10484;48.736;9.332;2023-08-30T02:02:46;6.57;;;5.97;;
20649;SDS011;10484;48.736;9.332;2023-08-30T02:05:12;6.20;;;5.70;;
20649;SDS011;10484;48.736;9.332;2023-08-30T02:10:09;6.23;;;5.73;;
20649;SDS011;10484;48.736;9.332;2023-08-30T02:12:42;5.70;;;5.30;;
20649;SDS011;10484;48.736;9.332;2023-08-30T02:15:14;6.40;;;5.93;;
20649;SDS011;10484;48.736;9.332;2023-08-30T02:17:42;6.13;;;5.63;;
20649;SDS011;10484;48.736;9.332;2023-08-30T02:20:08;6.40;;;5.90;;
20649;SDS011;10484;48.736;9.332;2023-08-30T02:22:34;6.20;;;5.70;;
20649;SDS011;10484;48.736;9.332;2023-08-30T02:25:00;6.27;;;5.87;;
20649;SDS011;10484;48.736;9.332;2023-08-30T02:27:29;5.57;;;5.07;;
20649;SDS011;10484;48.736;9.332;2023-08-30T02:29:59;6.50;;;6.00;;
20649;SDS011;10484;48.736;9.332;2023-08-30T02:32:25;6.03;;;5.63;;
20649;SDS011;10484;48.736;9.332;2023-08-30T02:34:51;6.37;;;5.87;;
20649;SDS011;10484;48.736;9.332;2023-08-30T02:37:18;6.77;;;6.27;;
20649;SDS011;10484;48.736;9.332;2023-08-30T02:39:44;5.60;;;5.20;;
20649;SDS011;10484;48.736;9.332;2023-08-30T02:42:09;5.77;;;5.37;;
20649;SDS011;10484;48.736;9.332;2023-08-30T02:44:35;7.03;;;6.53;;
20649;SDS011;10484;48.736;9.332;2023-08-30T02:47:01;5.80;;;5.40;;
20649;SDS011;10484;48.736;9.332;2023-08-30T02:49:26;5.57;;;5.17;;
20649;SDS011;10484;48.736;9.332;2023-08-30T02:51:52;6.47;;;5.97;;
20649;SDS011;10484;48.736;9.332;2023-08-30T02:54:17;6.50;;;6.10;;
20649;SDS011;10484;48.736;9.332;2023-08-30T02:56:43;6.23;;;5.83;;
20649;SDS011;10484;48.736;9.332;2023-08-30T02:59:09;5.90;;;5.50;;
20649;SDS011;10484;48.736;9.332;2023-08-30T03:01:36;6.03;;;5.53;;
20649;SDS011;10484;48.736;9.332;2023-08-30T03:04:04;6.03;;;5.53;;
20649;SDS011;10484;48.736;9.332;2023-08-30T03:06:31;6.73;;;6.23;;
20649;SDS011;10484;48.736;9.332;2023-08-30T03:08:57;6.00;;;5.60;;
20649;SDS011;10484;48.736;9.332;2023-08-30T03:11:23;7.00;;;6.50;;
20649;SDS011;10484;48.736;9.332;2023-08-30T03:13:48;7.17;;;6.67;;
20649;SDS011;10484;48.736;9.332;2023-08-30T03:16:15;7.50;;;6.90;;
20649;SDS011;10484;48.736;9.332;2023-08-30T03:18:42;7.30;;;6.70;;
20649;SDS011;10484;48.736;9.332;2023-08-30T03:21:09;7.20;;;6.60;;
20649;SDS011;10484;48.736;9.332;2023-08-30T03:23:35;6.83;;;6.33;;
20649;SDS011;10484;48.736;9.332;2023-08-30T03:26:07;7.27;;;6.77;;
20649;SDS011;10484;48.736;9.332;2023-08-30T03:28:34;7.30;;;6.70;;
20649;SDS011;10484;48.736;9.332;2023-08-30T03:31:00;7.50;;;6.97;;
20649;SDS011;10484;48.736;9.332;2023-08-30T03:33:25;6.73;;;6.33;;
20649;SDS011;10484;48.736;9.332;2023-08-30T03:35:51;7.53;;;6.93;;
20649;SDS011;10484;48.736;9.332;2023-08-30T03:38:16;6.90;;;6.40;;
20649;SDS011;10484;48.736;9.332;2023-08-30T03:40:42;8.23;;;7.53;;
20649;SDS011;10484;48.736;9.332;2023-08-30T03:43:08;6.97;;;6.43;;
20649;SDS011;10484;48.736;9.332;2023-08-30T03:45:35;7.83;;;7.20;;
20649;SDS011;10484;48.736;9.332;2023-08-30T03:48:03;7.23;;;6.63;;
20649;SDS011;10484;48.736;9.332;2023-08-30T03:50:29;7.67;;;5.87;;
20649;SDS011;10484;48.736;9.332;2023-08-30T03:52:55;7.50;;;6.67;;
20649;SDS011;10484;48.736;9.332;2023-08-30T03:55:21;6.70;;;6.20;;
20649;SDS011;10484;48.736;9.332;2023-08-30T03:57:47;7.10;;;6.50;;
20649;SDS011;10484;48.736;9.332;2023-08-30T04:00:13;7.33;;;6.73;;
20649;SDS011;10484;48.736;9.332;2023-08-30T04:02:39;6.10;;;5.70;;
20649;SDS011;10484;48.736;9.332;2023-08-30T04:05:04;6.70;;;6.20;;
20649;SDS011;10484;48.736;9.332;2023-08-30T04:07:33;7.10;;;6.60;;
20649;SDS011;10484;48.736;9.332;2023-08-30T04:10:00;6.43;;;6.00;;
20649;SDS011;10484;48.736;9.332;2023-08-30T04:12:27;8.10;;;6.40;;
20649;SDS011;10484;48.736;9.332;2023-08-30T04:14:53;6.80;;;6.30;;
20649;SDS011;10484;48.736;9.332;2023-08-30T04:17:19;7.40;;;6.90;;
20649;SDS011;10484;48.736;9.332;2023-08-30T04:19:44;6.87;;;6.27;;
20649;SDS011;10484;48.736;9.332;2023-08-30T04:22:10;7.40;;;6.80;;
20649;SDS011;10484;48.736;9.332;2023-08-30T04:24:35;6.87;;;6.17;;
20649;SDS011;10484;48.736;9.332;2023-08-30T04:27:01;6.73;;;6.23;;
20649;SDS011;10484;48.736;9.332;2023-08-30T04:29:27;6.73;;;6.33;;
20649;SDS011;10484;48.736;9.332;2023-08-30T04:31:52;7.20;;;6.70;;
20649;SDS011;10484;48.736;9.332;2023-08-30T04:34:19;6.80;;;6.20;;
20649;SDS011;10484;48.736;9.332;2023-08-30T04:36:44;6.00;;;5.50;;
20649;SDS011;10484;48.736;9.332;2023-08-30T04:39:10;7.13;;;6.63;;
20649;SDS011;10484;48.736;9.332;2023-08-30T04:41:38;7.30;;;6.70;;
20649;SDS011;10484;48.736;9.332;2023-08-30T04:44:04;7.77;;;7.20;;
20649;SDS011;10484;48.736;9.332;2023-08-30T04:46:29;7.23;;;6.57;;
20649;SDS011;10484;48.736;9.332;2023-08-30T04:48:55;7.60;;;7.00;;
20649;SDS011;10484;48.736;9.332;2023-08-30T04:51:21;7.70;;;6.80;;
20649;SDS011;10484;48.736;9.332;2023-08-30T04:53:46;6.50;;;6.00;;
20649;SDS011;10484;48.736;9.332;2023-08-30T04:56:12;6.80;;;6.30;;
20649;SDS011;10484;48.736;9.332;2023-08-30T04:58:38;7.57;;;6.97;;
20649;SDS011;10484;48.736;9.332;2023-08-30T05:01:04;6.70;;;6.20;;
20649;SDS011;10484;48.736;9.332;2023-08-30T05:03:30;7.07;;;6.57;;
20649;SDS011;10484;48.736;9.332;2023-08-30T05:05:55;7.33;;;6.43;;
20649;SDS011;10484;48.736;9.332;2023-08-30T05:08:21;6.63;;;6.13;;
20649;SDS011;10484;48.736;9.332;2023-08-30T05:10:46;7.57;;;7.03;;
20649;SDS011;10484;48.736;9.332;2023-08-30T05:13:15;8.47;;;7.87;;
20649;SDS011;10484;48.736;9.332;2023-08-30T05:15:41;7.63;;;7.03;;
20649;SDS011;10484;48.736;9.332;2023-08-30T05:18:07;8.13;;;7.33;;
20649;SDS011;10484;48.736;9.332;2023-08-30T05:20:33;7.33;;;6.73;;
20649;SDS011;10484;48.736;9.332;2023-08-30T05:22:58;7.00;;;6.50;;
20649;SDS011;10484;48.736;9.332;2023-08-30T05:25:24;6.90;;;6.30;;
20649;SDS011;10484;48.736;9.332;2023-08-30T05:27:49;7.87;;;7.27;;
20649;SDS011;10484;48.736;9.332;2023-08-30T05:30:15;7.97;;;7.37;;
20649;SDS011;10484;48.736;9.332;2023-08-30T05:32:41;6.70;;;6.20;;
20649;SDS011;10484;48.736;9.332;2023-08-30T05:35:07;6.50;;;6.00;;
20649;SDS011;10484;48.736;9.332;2023-08-30T05:37:32;7.10;;;6.50;;
20649;SDS011;10484;48.736;9.332;2023-08-30T05:39:58;7.03;;;6.57;;
20649;SDS011;10484;48.736;9.332;2023-08-30T05:42:24;6.63;;;6.20;;
20649;SDS011;10484;48.736;9.332;2023-08-30T05:44:49;7.00;;;6.37;;
20649;SDS011;10484;48.736;9.332;2023-08-30T05:47:15;8.00;;;6.60;;
20649;SDS011;10484;48.736;9.332;2023-08-30T05:49:41;6.77;;;6.30;;
20649;SDS011;10484;48.736;9.332;2023-08-30T05:52:07;7.10;;;6.60;;
20649;SDS011;10484;48.736;9.332;2023-08-30T05:54:33;7.10;;;6.60;;
20649;SDS011;10484;48.736;9.332;2023-08-30T05:56:59;6.70;;;6.23;;
20649;SDS011;10484;48.736;9.332;2023-08-30T05:59:24;6.33;;;5.83;;
20649;SDS011;10484;48.736;9.332;2023-08-30T06:01:50;7.20;;;6.70;;
20649;SDS011;10484;48.736;9.332;2023-08-30T06:04:16;8.13;;;7.47;;
20649;SDS011;10484;48.736;9.332;2023-08-30T06:06:41;6.93;;;6.37;;
20649;SDS011;10484;48.736;9.332;2023-08-30T06:09:07;6.70;;;6.30;;
20649;SDS011;10484;48.736;9.332;2023-08-30T06:11:32;7.10;;;6.60;;
20649;SDS011;10484;48.736;9.332;2023-08-30T06:13:58;7.27;;;6.77;;
20649;SDS011;10484;48.736;9.332;2023-08-30T06:16:24;7.03;;;6.53;;
20649;SDS011;10484;48.736;9.332;2023-08-30T06:18:50;9.00;;;8.30;;
20649;SDS011;10484;48.736;9.332;2023-08-30T06:21:16;7.93;;;7.33;;
20649;SDS011;10484;48.736;9.332;2023-08-30T06:23:41;7.90;;;7.30;;
20649;SDS011;10484;48.736;9.332;2023-08-30T06:26:07;7.10;;;6.50;;
20649;SDS011;10484;48.736;9.332;2023-08-30T06:28:33;7.10;;;6.53;;
20649;SDS011;10484;48.736;9.332;2023-08-30T06:30:58;9.30;;;8.50;;
20649;SDS011;10484;48.736;9.332;2023-08-30T06:33:24;8.63;;;7.43;;
20649;SDS011;10484;48.736;9.332;2023-08-30T06:35:50;7.67;;;7.17;;
20649;SDS011;10484;48.736;9.332;2023-08-30T06:38:16;7.37;;;6.80;;
20649;SDS011;10484;48.736;9.332;2023-08-30T06:40:45;8.67;;;7.87;;
20649;SDS011;10484;48.736;9.332;2023-08-30T06:43:11;8.30;;;7.70;;
20649;SDS011;10484;48.736;9.332;2023-08-30T06:45:38;9.47;;;8.77;;
20649;SDS011;10484;48.736;9.332;2023-08-30T06:48:05;9.17;;;8.47;;
20649;SDS011;10484;48.736;9.332;2023-08-30T06:50:32;7.70;;;7.10;;
20649;SDS011;10484;48.736;9.332;2023-08-30T06:52:58;6.63;;;6.13;;
20649;SDS011;10484;48.736;9.332;2023-08-30T06:55:24;7.73;;;7.13;;
20649;SDS011;10484;48.736;9.332;2023-08-30T06:57:49;8.80;;;8.00;;
20649;SDS011;10484;48.736;9.332;2023-08-30T07:00:15;9.33;;;8.20;;
20649;SDS011;10484;48.736;9.332;2023-08-30T07:02:41;7.43;;;6.93;;
20649;SDS011;10484;48.736;9.332;2023-08-30T07:05:10;6.97;;;6.47;;
20649;SDS011;10484;48.736;9.332;2023-08-30T07:07:36;9.47;;;8.73;;
20649;SDS011;10484;48.736;9.332;2023-08-30T07:10:02;8.13;;;7.53;;
20649;SDS011;10484;48.736;9.332;2023-08-30T07:12:27;7.20;;;6.70;;
20649;SDS011;10484;48.736;9.332;2023-08-30T07:14:53;8.80;;;8.00;;
20649;SDS011;10484;48.736;9.332;2023-08-30T07:17:19;9.00;;;8.30;;
20649;SDS011;10484;48.736;9.332;2023-08-30T07:19:45;6.97;;;6.47;;
20649;SDS011;10484;48.736;9.332;2023-08-30T07:22:10;10.13;;;9.23;;
20649;SDS011;10484;48.736;9.332;2023-08-30T07:24:36;6.87;;;6.47;;
20649;SDS011;10484;48.736;9.332;2023-08-30T07:27:02;10.10;;;9.17;;
20649;SDS011;10484;48.736;9.332;2023-08-30T07:29:28;9.67;;;7.70;;
20649;SDS011;10484;48.736;9.332;2023-08-30T07:31:53;8.70;;;7.90;;
20649;SDS011;10484;48.736;9.332;2023-08-30T07:34:19;7.70;;;7.10;;
20649;SDS011;10484;48.736;9.332;2023-08-30T07:36:45;7.77;;;7.17;;
20649;SDS011;10484;48.736;9.332;2023-08-30T07:39:11;7.97;;;7.37;;
20649;SDS011;10484;48.736;9.332;2023-08-30T07:41:37;6.57;;;6.07;;
20649;SDS011;10484;48.736;9.332;2023-08-30T07:44:03;7.77;;;7.17;;
20649;SDS011;10484;48.736;9.332;2023-08-30T07:46:29;7.63;;;7.03;;
20649;SDS011;10484;48.736;9.332;2023-08-30T07:48:54;6.83;;;6.33;;
20649;SDS011;10484;48.736;9.332;2023-08-30T07:51:20;8.03;;;7.43;;
20649;SDS011;10484;48.736;9.332;2023-08-30T07:53:46;8.17;;;7.57;;
20649;SDS011;10484;48.736;9.332;2023-08-30T07:56:12;8.60;;;7.90;;
20649;SDS011;10484;48.736;9.332;2023-08-30T07:58:37;9.90;;;8.23;;
20649;SDS011;10484;48.736;9.332;2023-08-30T08:01:05;8.57;;;7.87;;
20649;SDS011;10484;48.736;9.332;2023-08-30T08:03:31;7.47;;;6.97;;
20649;SDS011;10484;48.736;9.332;2023-08-30T08:05:57;7.13;;;6.63;;
20649;SDS011;10484;48.736;9.332;2023-08-30T08:08:24;8.40;;;7.80;;
20649;SDS011;10484;48.736;9.332;2023-08-30T08:10:49;7.50;;;6.90;;
20649;SDS011;10484;48.736;9.332;2023-08-30T08:13:15;7.07;;;6.50;;
20649;SDS011;10484;48.736;9.332;2023-08-30T08:15:40;7.60;;;7.10;;
20649;SDS011;10484;48.736;9.332;2023-08-30T08:18:06;6.97;;;6.40;;
20649;SDS011;10484;48.736;9.332;2023-08-30T08:20:32;6.40;;;5.90;;
20649;SDS011;10484;48.736;9.332;2023-08-30T08:22:58;6.10;;;5.70;;
20649;SDS011;10484;48.736;9.332;2023-08-30T08:25:23;7.50;;;6.90;;
20649;SDS011;10484;48.736;9.332;2023-08-30T08:27:49;11.07;;;7.80;;
20649;SDS011;10484;48.736;9.332;2023-08-30T08:30:16;7.93;;;7.33;;
20649;SDS011;10484;48.736;9.332;2023-08-30T08:32:41;6.70;;;6.20;;
20649;SDS011;10484;48.736;9.332;2023-08-30T08:35:07;6.37;;;5.87;;
20649;SDS011;10484;48.736;9.332;2023-08-30T08:37:33;6.27;;;5.80;;
20649;SDS011;10484;48.736;9.332;2023-08-30T08:39:59;5.60;;;5.20;;
20649;SDS011;10484;48.736;9.332;2023-08-30T08:42:25;5.90;;;5.50;;
20649;SDS011;10484;48.736;9.332;2023-08-30T08:44:52;6.00;;;5.50;;
20649;SDS011;10484;48.736;9.332;2023-08-30T08:47:19;6.50;;;6.00;;
20649;SDS011;10484;48.736;9.332;2023-08-30T08:49:49;5.63;;;5.23;;
20649;SDS011;10484;48.736;9.332;2023-08-30T08:52:16;6.30;;;5.90;;
20649;SDS011;10484;48.736;9.332;2023-08-30T08:54:42;5.80;;;5.40;;
20649;SDS011;10484;48.736;9.332;2023-08-30T08:57:09;5.53;;;5.13;;
20649;SDS011;10484;48.736;9.332;2023-08-30T08:59:34;5.03;;;4.73;;
20649;SDS011;10484;48.736;9.332;2023-08-30T09:02:00;4.50;;;4.20;;
20649;SDS011;10484;48.736;9.332;2023-08-30T09:04:26;5.30;;;4.90;;
20649;SDS011;10484;48.736;9.332;2023-08-30T09:06:55;5.10;;;4.77;;
20649;SDS011;10484;48.736;9.332;2023-08-30T09:09:21;4.90;;;4.60;;
20649;SDS011;10484;48.736;9.332;2023-08-30T09:11:48;4.63;;;4.33;;
20649;SDS011;10484;48.736;9.332;2023-08-30T09:14:13;4.80;;;4.47;;
20649;SDS011;10484;48.736;9.332;2023-08-30T09:16:39;4.37;;;4.07;;
20649;SDS011;10484;48.736;9.332;2023-08-30T09:19:04;4.10;;;3.80;;
20649;SDS011;10484;48.736;9.332;2023-08-30T09:21:30;4.30;;;4.00;;
20649;SDS011;10484;48.736;9.332;2023-08-30T09:24:02;5.13;;;4.73;;
20649;SDS011;10484;48.736;9.332;2023-08-30T09:26:30;5.40;;;5.00;;
20649;SDS011;10484;48.736;9.332;2023-08-30T09:29:03;4.03;;;3.80;;
20649;SDS011;10484;48.736;9.332;2023-08-30T09:31:32;4.70;;;4.30;;
20649;SDS011;10484;48.736;9.332;2023-08-30T09:33:59;4.57;;;4.27;;
20649;SDS011;10484;48.736;9.332;2023-08-30T09:36:26;4.57;;;4.27;;
20649;SDS011;10484;48.736;9.332;2023-08-30T09:38:57;4.53;;;4.23;;
20649;SDS011;10484;48.736;9.332;2023-08-30T09:41:24;4.67;;;4.37;;
20649;SDS011;10484;48.736;9.332;2023-08-30T09:43:50;4.80;;;4.40;;
20649;SDS011;10484;48.736;9.332;2023-08-30T09:46:15;4.30;;;4.00;;
20649;SDS011;10484;48.736;9.332;2023-08-30T09:48:41;4.23;;;3.93;;
20649;SDS011;10484;48.736;9.332;2023-08-30T09:51:07;3.70;;;3.40;;
20649;SDS011;10484;48.736;9.332;2023-08-30T09:53:37;3.77;;;3.53;;
20649;SDS011;10484;48.736;9.332;2023-08-30T09:56:07;4.20;;;3.90;;
20649;SDS011;10484;48.736;9.332;2023-08-30T09:58:36;3.40;;;3.20;;
20649;SDS011;10484;48.736;9.332;2023-08-30T10:01:03;3.80;;;3.50;;
20649;SDS011;10484;48.736;9.332;2023-08-30T10:03:30;4.13;;;3.87;;
20649;SDS011;10484;48.736;9.332;2023-08-30T10:05:56;3.77;;;3.47;;
20649;SDS011;10484;48.736;9.332;2023-08-30T10:08:23;3.80;;;3.50;;
20649;SDS011;10484;48.736;9.332;2023-08-30T10:10:55;3.60;;;3.40;;
20649;SDS011;10484;48.736;9.332;2023-08-30T10:13:23;3.73;;;3.43;;
20649;SDS011;10484;48.736;9.332;2023-08-30T10:15:49;3.83;;;3.53;;
20649;SDS011;10484;48.736;9.332;2023-08-30T10:18:20;3.20;;;3.00;;
20649;SDS011;10484;48.736;9.332;2023-08-30T10:20:47;2.93;;;2.73;;
20649;SDS011;10484;48.736;9.332;2023-08-30T10:23:14;2.90;;;2.80;;
20649;SDS011;10484;48.736;9.332;2023-08-30T10:25:42;2.83;;;2.63;;
20649;SDS011;10484;48.736;9.332;2023-08-30T10:28:09;3.13;;;2.90;;
20649;SDS011;10484;48.736;9.332;2023-08-30T10:30:35;3.30;;;3.00;;
20649;SDS011;10484;48.736;9.332;2023-08-30T10:33:00;2.97;;;2.77;;
20649;SDS011;10484;48.736;9.332;2023-08-30T10:35:28;3.20;;;3.00;;
20649;SDS011;10484;48.736;9.332;2023-08-30T10:37:54;3.30;;;3.10;;
20649;SDS011;10484;48.736;9.332;2023-08-30T10:40:21;3.40;;;3.20;;
20649;SDS011;10484;48.736;9.332;2023-08-30T10:42:47;2.70;;;2.50;;
20649;SDS011;10484;48.736;9.332;2023-08-30T10:45:28;2.50;;;2.40;;
20649;SDS011;10484;48.736;9.332;2023-08-30T10:47:55;3.03;;;2.83;;
20649;SDS011;10484;48.736;9.332;2023-08-30T10:50:27;3.10;;;2.90;;
20649;SDS011;10484;48.736;9.332;2023-08-30T10:52:57;3.03;;;2.83;;
20649;SDS011;10484;48.736;9.332;2023-08-30T10:55:23;2.50;;;2.40;;
20649;SDS011;10484;48.736;9.332;2023-08-30T10:57:58;2.60;;;2.43;;
20649;SDS011;10484;48.736;9.332;2023-08-30T11:00:28;3.27;;;2.97;;
20649;SDS011;10484;48.736;9.332;2023-08-30T11:02:55;3.20;;;3.00;;
20649;SDS011;10484;48.736;9.332;2023-08-30T11:05:21;2.53;;;2.43;;
20649;SDS011;10484;48.736;9.332;2023-08-30T11:07:51;5.63;;;2.53;;
20649;SDS011;10484;48.736;9.332;2023-08-30T11:10:18;3.13;;;2.87;;
20649;SDS011;10484;48.736;9.332;2023-08-30T11:12:44;2.53;;;2.40;;
20649;SDS011;10484;48.736;9.332;2023-08-30T11:15:12;2.80;;;2.60;;
20649;SDS011;10484;48.736;9.332;2023-08-30T11:17:39;2.57;;;2.47;;
20649;SDS011;10484;48.736;9.332;2023-08-30T11:20:08;2.70;;;2.60;;
20649;SDS011;10484;48.736;9.332;2023-08-30T11:22:45;2.63;;;2.53;;
20649;SDS011;10484;48.736;9.332;2023-08-30T11:25:12;2.23;;;2.13;;
20649;SDS011;10484;48.736;9.332;2023-08-30T11:27:39;2.93;;;2.43;;
20649;SDS011;10484;48.736;9.332;2023-08-30T11:30:06;2.90;;;2.70;;
20649;SDS011;10484;48.736;9.332;2023-08-30T11:32:33;2.90;;;2.70;;
20649;SDS011;10484;48.736;9.332;2023-08-30T11:34:59;6.97;;;2.93;;
20649;SDS011;10484;48.736;9.332;2023-08-30T11:37:26;2.30;;;2.20;;
20649;SDS011;10484;48.736;9.332;2023-08-30T11:39:52;3.70;;;2.50;;
20649;SDS011;10484;48.736;9.332;2023-08-30T11:42:20;2.93;;;2.43;;
20649;SDS011;10484;48.736;9.332;2023-08-30T11:44:46;2.40;;;1.90;;
20649;SDS011;10484;48.736;9.332;2023-08-30T11:47:17;2.60;;;2.40;;
20649;SDS011;10484;48.736;9.332;2023-08-30T11:49:52;2.00;;;1.90;;
20649;SDS011;10484;48.736;9.332;2023-08-30T11:52:20;2.27;;;2.07;;
20649;SDS011;10484;48.736;9.332;2023-08-30T11:54:48;1.90;;;1.80;;
20649;SDS011;10484;48.736;9.332;2023-08-30T11:57:14;3.27;;;2.07;;
20649;SDS011;10484;48.736;9.332;2023-08-30T11:59:40;2.63;;;2.43;;
20649;SDS011;10484;48.736;9.332;2023-08-30T12:02:06;1.97;;;1.83;;
20649;SDS011;10484;48.736;9.332;2023-08-30T12:04:32;2.37;;;2.17;;
20649;SDS011;10484;48.736;9.332;2023-08-30T12:07:04;2.53;;;2.33;;
20649;SDS011;10484;48.736;9.332;2023-08-30T12:09:30;2.40;;;2.30;;
20649;SDS011;10484;48.736;9.332;2023-08-30T12:12:09;2.03;;;1.93;;
20649;SDS011;10484;48.736;9.332;2023-08-30T12:14:36;1.93;;;1.83;;
20649;SDS011;10484;48.736;9.332;2023-08-30T12:17:02;2.50;;;2.30;;
20649;SDS011;10484;48.736;9.332;2023-08-30T12:19:28;2.40;;;2.30;;
20649;SDS011;10484;48.736;9.332;2023-08-30T12:21:54;2.47;;;2.30;;
20649;SDS011;10484;48.736;9.332;2023-08-30T12:24:20;2.47;;;2.27;;
20649;SDS011;10484;48.736;9.332;2023-08-30T12:26:47;2.47;;;2.27;;
20649;SDS011;10484;48.736;9.332;2023-08-30T12:29:13;2.20;;;2.10;;
20649;SDS011;10484;48.736;9.332;2023-08-30T12:31:38;2.30;;;2.10;;
20649;SDS011;10484;48.736;9.332;2023-08-30T12:34:04;2.27;;;2.17;;
20649;SDS011;10484;48.736;9.332;2023-08-30T12:36:30;2.07;;;1.70;;
20649;SDS011;10484;48.736;9.332;2023-08-30T12:38:56;2.57;;;2.37;;
20649;SDS011;10484;48.736;9.332;2023-08-30T12:41:22;2.23;;;2.13;;
20649;SDS011;10484;48.736;9.332;2023-08-30T12:43:48;2.80;;;2.60;;
20649;SDS011;10484;48.736;9.332;2023-08-30T12:46:15;2.80;;;2.60;;
20649;SDS011;10484;48.736;9.332;2023-08-30T12:48:40;2.10;;;2.00;;
20649;SDS011;10484;48.736;9.332;2023-08-30T12:51:06;3.07;;;2.50;;
20649;SDS011;10484;48.736;9.332;2023-08-30T12:53:31;2.50;;;2.30;;
20649;SDS011;10484;48.736;9.332;2023-08-30T12:55:57;3.00;;;2.70;;
20649;SDS011;10484;48.736;9.332;2023-08-30T12:58:23;2.70;;;2.50;;
20649;SDS011;10484;48.736;9.332;2023-08-30T13:00:50;2.60;;;2.50;;
20649;SDS011;10484;48.736;9.332;2023-08-30T13:03:15;2.50;;;2.30;;
20649;SDS011;10484;48.736;9.332;2023-08-30T13:05:41;2.67;;;2.47;;
20649;SDS011;10484;48.736;9.332;2023-08-30T13:08:06;2.57;;;2.37;;
20649;SDS011;10484;48.736;9.332;2023-08-30T13:10:32;2.67;;;2.47;;
20649;SDS011;10484;48.736;9.332;2023-08-30T13:12:58;2.20;;;2.10;;
20649;SDS011;10484;48.736;9.332;2023-08-30T13:15:23;2.53;;;2.33;;
20649;SDS011;10484;48.736;9.332;2023-08-30T13:17:49;2.63;;;2.43;;
20649;SDS011;10484;48.736;9.332;2023-08-30T13:20:15;3.00;;;2.40;;
20649;SDS011;10484;48.736;9.332;2023-08-30T13:22:41;2.20;;;2.10;;
20649;SDS011;10484;48.736;9.332;2023-08-30T13:25:07;2.23;;;2.13;;
20649;SDS011;10484;48.736;9.332;2023-08-30T13:27:33;2.10;;;2.00;;
20649;SDS011;10484;48.736;9.332;2023-08-30T13:29:59;3.00;;;2.33;;
20649;SDS011;10484;48.736;9.332;2023-08-30T13:32:25;2.53;;;2.33;;
20649;SDS011;10484;48.736;9.332;2023-08-30T13:34:50;2.37;;;2.20;;
20649;SDS011;10484;48.736;9.332;2023-08-30T13:37:16;2.40;;;2.30;;
20649;SDS011;10484;48.736;9.332;2023-08-30T13:39:42;2.60;;;2.40;;
20649;SDS011;10484;48.736;9.332;2023-08-30T13:42:08;2.20;;;2.03;;
20649;SDS011;10484;48.736;9.332;2023-08-30T13:44:34;3.23;;;2.63;;
20649;SDS011;10484;48.736;9.332;2023-08-30T13:47:03;3.77;;;2.60;;
20649;SDS011;10484;48.736;9.332;2023-08-30T13:49:29;2.10;;;2.00;;
20649;SDS011;10484;48.736;9.332;2023-08-30T13:51:55;2.30;;;2.20;;
20649;SDS011;10484;48.736;9.332;2023-08-30T13:54:21;2.73;;;2.53;;
20649;SDS011;10484;48.736;9.332;2023-08-30T13:56:47;2.00;;;1.90;;
20649;SDS011;10484;48.736;9.332;2023-08-30T13:59:12;2.57;;;2.37;;
20649;SDS011;10484;48.736;9.332;2023-08-30T14:01:38;2.27;;;2.17;;
20649;SDS011;10484;48.736;9.332;2023-08-30T14:04:04;2.30;;;2.10;;
20649;SDS011;10484;48.736;9.332;2023-08-30T14:06:30;2.30;;;2.10;;
20649;SDS011;10484;48.736;9.332;2023-08-30T14:08:57;1.93;;;1.83;;
20649;SDS011;10484;48.736;9.332;2023-08-30T14:11:23;2.10;;;2.00;;
20649;SDS011;10484;48.736;9.332;2023-08-30T14:13:48;2.30;;;2.20;;
20649;SDS011;10484;48.736;9.332;2023-08-30T14:16:14;2.20;;;2.10;;
20649;SDS011;10484;48.736;9.332;2023-08-30T14:18:39;2.20;;;2.10;;
20649;SDS011;10484;48.736;9.332;2023-08-30T14:21:05;2.03;;;1.93;;
20649;SDS011;10484;48.736;9.332;2023-08-30T14:23:31;2.23;;;2.13;;
20649;SDS011;10484;48.736;9.332;2023-08-30T14:26:01;2.17;;;2.07;;
20649;SDS011;10484;48.736;9.332;2023-08-30T14:28:37;1.73;;;1.63;;
20649;SDS011;10484;48.736;9.332;2023-08-30T14:31:10;1.90;;;1.80;;
20649;SDS011;10484;48.736;9.332;2023-08-30T14:33:37;1.83;;;1.73;;
20649;SDS011;10484;48.736;9.332;2023-08-30T14:36:10;1.70;;;1.60;;
20649;SDS011;10484;48.736;9.332;2023-08-30T14:38:37;1.73;;;1.63;;
20649;SDS011;10484;48.736;9.332;2023-08-30T14:41:03;1.90;;;1.80;;
20649;SDS011;10484;48.736;9.332;2023-08-30T14:43:28;2.10;;;2.00;;
20649;SDS011;10484;48.736;9.332;2023-08-30T14:46:01;2.10;;;2.00;;
20649;SDS011;10484;48.736;9.332;2023-08-30T14:48:27;1.90;;;1.80;;